Time;durP1;ratioP1;P1;durP2;ratioP2;P2;SDS_P1;SDS_P2;PMS_P1;PMS_P2;Temp;Humidity;BMP_temperature;BMP_pressure;BME280_temperature;BME280_humidity;BME280_pressure;Samples;Min_cycle;Max_cycle;Signal;HPM_P1;HPM_P2
2024/02/03 00:02:10;;;;;;;49.40;25.92;;;;;;;30.10;76.17;101334.47;5044945;28;70363;-43
2024/02/03 00:04:41;;;;;;;44.70;26.45;;;;;;;30.12;75.48;101333.22;5052963;28;66157;-44
2024/02/03 00:07:12;;;;;;;46.47;26.45;;;;;;;30.10;76.52;101338.00;5055248;28;69691;-43
2024/02/03 00:09:42;;;;;;;42.92;25.75;;;;;;;30.08;77.27;101342.78;5044069;28;66649;-43
2024/02/03 00:12:15;;;;;;;38.43;23.37;;;;;;;30.06;77.35;101350.25;5057566;28;70243;-44
2024/02/03 00:14:45;;;;;;;28.17;19.33;;;;;;;30.05;76.75;101351.31;5059869;28;65339;-46
2024/02/03 00:17:16;;;;;;;28.88;17.95;;;;;;;30.05;76.28;101351.31;5056600;28;70550;-46
2024/02/03 00:19:47;;;;;;;24.73;15.10;;;;;;;30.06;76.55;101355.66;5059585;28;65661;-45
2024/02/03 00:22:17;;;;;;;23.15;14.27;;;;;;;30.08;76.73;101358.19;5057745;28;70129;-44
2024/02/03 00:24:49;;;;;;;19.83;13.73;;;;;;;30.10;76.70;101367.75;5053371;28;66495;-45
2024/02/03 00:27:19;;;;;;;18.42;13.18;;;;;;;30.10;77.19;101369.63;5052006;28;69910;-46
2024/02/03 00:29:50;;;;;;;19.88;12.98;;;;;;;30.10;76.79;101378.59;5052897;28;65906;-44
2024/02/03 00:32:21;;;;;;;22.88;12.60;;;;;;;30.11;77.08;101369.41;5054532;28;69673;-44
2024/02/03 00:34:51;;;;;;;22.15;11.73;;;;;;;30.12;77.70;101379.22;5048905;28;66642;-44
2024/02/03 00:37:22;;;;;;;14.70;11.18;;;;;;;30.08;75.57;101377.94;5047757;28;69354;-44
2024/02/03 00:39:53;;;;;;;10.68;9.65;;;;;;;30.10;75.60;101378.59;5062481;28;66846;-45
2024/02/03 00:42:24;;;;;;;10.77;9.70;;;;;;;30.11;75.42;101380.25;5058088;28;70488;-44
2024/02/03 00:44:55;;;;;;;10.53;9.47;;;;;;;30.11;75.42;101384.81;5045739;28;66518;-47
2024/02/03 00:47:26;;;;;;;10.73;9.77;;;;;;;30.14;75.35;101384.41;5043232;28;70162;-44
2024/02/03 00:49:56;;;;;;;10.73;9.63;;;;;;;30.15;75.12;101391.50;5053586;28;66663;-44
2024/02/03 00:52:27;;;;;;;12.20;9.27;;;;;;;30.16;74.96;101394.00;5047052;28;70915;-48
2024/02/03 00:54:58;;;;;;;11.25;10.13;;;;;;;29.92;74.90;101357.50;5040921;28;65549;-44
2024/02/03 00:57:29;;;;;;;9.05;8.45;;;;;;;30.19;75.16;101403.59;5053606;28;71413;-44
2024/02/03 01:00:01;;;;;;;12.85;10.50;;;;;;;30.20;74.76;101400.69;5049486;28;66676;-45
2024/02/03 01:02:33;;;;;;;13.35;11.15;;;;;;;30.22;74.69;101403.22;5044900;28;70435;-49
2024/02/03 01:05:04;;;;;;;11.15;9.98;;;;;;;30.20;75.17;101406.09;5045899;28;66449;-44
2024/02/03 01:07:35;;;;;;;11.10;10.13;;;;;;;30.21;74.84;101407.75;5042200;28;70661;-43
2024/02/03 01:10:06;;;;;;;11.05;10.25;;;;;;;30.15;74.68;101395.03;5043122;28;66867;-44
2024/02/03 01:12:37;;;;;;;9.50;8.77;;;;;;;30.22;74.65;101420.28;5024215;28;69415;-44
2024/02/03 01:15:08;;;;;;;10.43;9.50;;;;;;;30.21;74.53;101413.16;5044849;28;66700;-43
2024/02/03 01:17:39;;;;;;;9.93;9.13;;;;;;;30.25;74.90;101422.56;5051964;28;69761;-44
2024/02/03 01:20:10;;;;;;;9.93;9.00;;;;;;;30.21;74.39;101412.34;5045640;28;66821;-45
2024/02/03 01:22:41;;;;;;;9.43;8.52;;;;;;;30.23;74.71;101427.38;5042163;28;69085;-44
2024/02/03 01:25:12;;;;;;;9.80;8.90;;;;;;;30.27;74.30;101427.78;5029827;28;65545;-44
2024/02/03 01:27:43;;;;;;;10.95;9.77;;;;;;;30.26;74.78;101437.78;5058557;28;69198;-44
2024/02/03 01:30:14;;;;;;;10.23;9.33;;;;;;;30.26;74.55;101436.97;5047828;28;66185;-44
2024/02/03 01:32:44;;;;;;;11.80;9.35;;;;;;;30.27;74.69;101439.44;5058308;28;70128;-43
2024/02/03 01:35:15;;;;;;;10.77;8.98;;;;;;;30.26;74.56;101437.78;5052501;28;66125;-43
2024/02/03 01:37:46;;;;;;;11.95;8.70;;;;;;;30.27;74.93;101438.63;5036220;28;70466;-44
2024/02/03 01:40:16;;;;;;;9.90;8.93;;;;;;;30.21;74.57;101425.88;5042322;28;65704;-44
2024/02/03 01:42:47;;;;;;;8.90;7.97;;;;;;;30.31;74.59;101445.28;5051118;28;70558;-44
2024/02/03 01:45:18;;;;;;;8.10;7.60;;;;;;;30.32;74.72;101452.38;5047152;28;66164;-44
2024/02/03 01:47:49;;;;;;;9.97;8.80;;;;;;;30.31;74.67;101449.84;5049494;28;70454;-44
2024/02/03 01:50:22;;;;;;;10.25;8.18;;;;;;;30.21;74.69;101434.81;5038203;28;66351;-43
2024/02/03 01:52:54;;;;;;;8.15;7.45;;;;;;;30.34;74.46;101454.88;5051633;28;70114;-44
2024/02/03 01:55:26;;;;;;;9.25;8.43;;;;;;;30.36;74.51;101453.63;5046389;28;66661;-43
2024/02/03 01:58:01;;;;;;;8.10;7.38;;;;;;;29.77;74.13;101356.81;5046614;28;69107;-44
2024/02/03 02:00:32;;;;;;;8.48;7.70;;;;;;;30.37;74.56;101459.88;5043091;28;65496;-43
2024/02/03 02:03:03;;;;;;;9.30;8.40;;;;;;;30.35;74.28;101461.97;5045998;28;71476;-43
2024/02/03 02:05:34;;;;;;;8.88;8.05;;;;;;;30.35;74.53;101451.13;5042054;28;67437;-43
2024/02/03 02:08:06;;;;;;;8.30;7.57;;;;;;;30.37;74.28;101458.03;5046147;28;69654;-43
2024/02/03 02:10:36;;;;;;;9.43;8.48;;;;;;;30.38;74.15;101456.16;5048989;28;65924;-43
2024/02/03 02:13:07;;;;;;;8.77;7.97;;;;;;;30.39;74.25;101463.22;5049986;28;70086;-43
2024/02/03 02:15:38;;;;;;;9.65;8.25;;;;;;;30.39;74.26;101460.50;5038653;28;66581;-44
2024/02/03 02:18:09;;;;;;;9.20;8.32;;;;;;;30.42;74.10;101462.81;5043779;28;70638;-43
2024/02/03 02:20:40;;;;;;;7.70;7.20;;;;;;;30.44;74.02;101466.16;5053634;28;65678;-43
2024/02/03 02:23:10;;;;;;;8.02;7.43;;;;;;;30.45;74.52;101462.41;5051851;28;70665;-43
2024/02/03 02:25:42;;;;;;;8.75;8.05;;;;;;;30.46;74.30;101467.63;5055416;28;65915;-44
2024/02/03 02:28:13;;;;;;;8.55;7.80;;;;;;;30.38;74.44;101456.97;5056134;28;69186;-45
2024/02/03 02:30:44;;;;;;;7.88;7.28;;;;;;;30.40;74.28;101454.06;5040619;28;67493;-45
2024/02/03 02:33:14;;;;;;;7.85;7.25;;;;;;;30.50;74.17;101468.88;5042520;28;70042;-43
2024/02/03 02:35:49;;;;;;;8.38;7.70;;;;;;;30.51;74.07;101456.19;5054337;28;66593;-44
2024/02/03 02:38:20;;;;;;;7.88;7.38;;;;;;;30.48;74.02;101449.31;5057990;28;70777;-43
2024/02/03 02:40:51;;;;;;;9.00;8.30;;;;;;;30.53;74.44;101461.38;5060496;28;66065;-43
2024/02/03 02:43:22;;;;;;;8.02;7.22;;;;;;;30.56;74.29;101456.38;5047002;28;70845;-43
2024/02/03 02:45:54;;;;;;;8.50;7.90;;;;;;;30.57;73.94;101447.25;5041227;28;66165;-44
2024/02/03 02:48:25;;;;;;;7.57;6.88;;;;;;;30.57;74.04;101449.94;5039769;28;69331;-44
2024/02/03 02:50:57;;;;;;;8.38;7.55;;;;;;;30.58;74.10;101451.59;5052465;28;65632;-45
2024/02/03 02:53:28;;;;;;;7.85;7.25;;;;;;;30.60;74.11;101446.84;5040975;28;69961;-46
2024/02/03 02:55:59;;;;;;;9.65;6.80;;;;;;;30.61;73.68;101445.78;5051305;28;67632;-44
2024/02/03 02:58:29;;;;;;;7.73;7.10;;;;;;;30.63;73.78;101438.28;5039258;28;69989;-44
2024/02/03 03:01:00;;;;;;;7.70;7.03;;;;;;;30.65;73.81;101428.09;5050853;28;66299;-43
2024/02/03 03:03:31;;;;;;;8.13;7.32;;;;;;;30.66;73.76;101427.03;5058719;28;70266;-43
2024/02/03 03:06:02;;;;;;;7.85;7.25;;;;;;;30.37;73.65;101379.53;5048534;28;66495;-43
2024/02/03 03:08:33;;;;;;;7.32;6.70;;;;;;;30.62;73.68;101414.97;5053919;28;70500;-43
2024/02/03 03:11:04;;;;;;;7.20;6.75;;;;;;;30.70;73.66;101422.03;5054171;28;66573;-44
2024/02/03 03:13:35;;;;;;;7.67;7.17;;;;;;;30.72;73.71;101425.38;5060144;28;70200;-45
2024/02/03 03:16:09;;;;;;;;;;;;;;;30.44;73.71;101420.13;5047905;28;67241;-43
2024/02/03 03:18:41;;;;;;;6.68;6.18;;;;;;;30.67;73.48;101412.50;5052870;28;70391;-43
2024/02/03 03:21:13;;;;;;;7.20;6.70;;;;;;;30.75;73.72;101418.72;5047058;28;66312;-42
2024/02/03 03:23:44;;;;;;;7.68;6.97;;;;;;;30.77;73.42;101411.25;5047789;28;71088;-43
2024/02/03 03:26:14;;;;;;;7.35;6.68;;;;;;;30.80;73.05;101413.56;5043236;28;66624;-43
2024/02/03 03:28:45;;;;;;;6.78;6.18;;;;;;;30.81;73.38;101401.69;5052877;28;70494;-44
2024/02/03 03:31:16;;;;;;;6.65;6.22;;;;;;;30.81;73.58;101396.25;5059174;28;66714;-43
2024/02/03 03:33:47;;;;;;;7.37;6.77;;;;;;;30.83;73.18;101394.19;5048587;28;70215;-45
2024/02/03 03:36:18;;;;;;;6.65;6.18;;;;;;;30.59;73.21;101355.81;5044029;28;65681;-44
2024/02/03 03:38:48;;;;;;;6.50;6.10;;;;;;;30.61;73.10;101342.06;5057554;28;70611;-44
2024/02/03 03:41:19;;;;;;;6.38;5.97;;;;;;;30.71;72.89;101354.16;5049977;28;66403;-44
2024/02/03 03:43:50;;;;;;;7.07;6.47;;;;;;;30.91;72.95;101380.44;5052995;28;70412;-43
2024/02/03 03:46:22;;;;;;;6.83;6.33;;;;;;;30.92;72.88;101366.69;5052861;28;66446;-44
2024/02/03 03:48:52;;;;;;;6.22;5.82;;;;;;;30.93;73.23;101359.41;5035027;28;70948;-43
2024/02/03 03:51:24;;;;;;;6.40;6.00;;;;;;;30.96;72.81;101353.56;5049926;28;65815;-42
2024/02/03 03:53:55;;;;;;;10.83;6.63;;;;;;;30.94;72.82;101348.34;5055525;28;70080;-43
2024/02/03 03:56:27;;;;;;;7.47;6.97;;;;;;;30.95;72.67;101343.75;5058183;28;66519;-43
2024/02/03 03:58:59;;;;;;;6.03;5.63;;;;;;;31.01;72.84;101348.34;5051800;28;69898;-43
2024/02/03 04:01:30;;;;;;;6.90;6.20;;;;;;;31.01;72.68;101337.50;5055351;28;66151;-43
2024/02/03 04:04:00;;;;;;;6.45;5.97;;;;;;;30.97;72.52;101330.81;5054269;28;70599;-43
2024/02/03 04:06:31;;;;;;;7.28;6.63;;;;;;;31.06;72.60;101337.69;5050930;28;67034;-44
2024/02/03 04:09:02;;;;;;;6.50;6.00;;;;;;;31.09;72.55;101331.88;5049040;28;70323;-44
2024/02/03 04:11:33;;;;;;;6.97;6.47;;;;;;;31.01;72.37;101317.69;5045315;28;67083;-43
2024/02/03 04:14:05;;;;;;;6.60;6.18;;;;;;;31.13;72.67;101319.56;5060006;28;70179;-43
2024/02/03 04:16:36;;;;;;;8.30;6.75;;;;;;;31.12;72.55;101312.47;5058207;28;65645;-44
2024/02/03 04:19:06;;;;;;;6.18;5.68;;;;;;;31.18;72.22;101313.50;5058066;28;70780;-43
2024/02/03 04:21:37;;;;;;;5.88;5.30;;;;;;;31.19;72.26;101306.19;5060046;28;66178;-44
2024/02/03 04:24:08;;;;;;;7.03;6.50;;;;;;;31.23;72.17;101302.00;5055925;28;69233;-43
2024/02/03 04:26:39;;;;;;;6.75;6.32;;;;;;;31.24;71.91;101303.69;5048424;28;67743;-43
2024/02/03 04:29:09;;;;;;;6.13;5.63;;;;;;;31.26;72.16;101296.16;5047447;28;70070;-44
2024/02/03 04:31:43;;;;;;;6.75;6.28;;;;;;;31.28;71.78;101294.06;5051195;28;66283;-44
2024/02/03 04:34:18;;;;;;;6.45;6.05;;;;;;;31.29;71.80;101287.63;5059199;28;70049;-43
2024/02/03 04:36:49;;;;;;;8.07;5.97;;;;;;;31.32;71.92;101273.66;5062923;28;65597;-44
2024/02/03 04:39:19;;;;;;;6.18;5.65;;;;;;;31.34;71.84;101260.69;5042024;28;69871;-43
2024/02/03 04:41:50;;;;;;;6.38;5.97;;;;;;;31.35;71.57;101256.94;5045233;28;66111;-44
2024/02/03 04:44:21;;;;;;;6.55;6.05;;;;;;;31.37;71.69;101261.16;5025047;28;69150;-43
2024/02/03 04:46:52;;;;;;;6.93;6.45;;;;;;;31.38;71.68;101246.53;5054823;28;66105;-43
2024/02/03 04:49:22;;;;;;;7.35;6.68;;;;;;;31.35;71.50;101241.50;5063188;28;70311;-43
2024/02/03 04:51:54;;;;;;;6.60;6.18;;;;;;;31.33;71.70;101237.34;5060274;28;66623;-45
2024/02/03 04:54:24;;;;;;;7.15;6.65;;;;;;;31.42;71.44;101236.09;5063641;28;70487;-44
2024/02/03 04:56:55;;;;;;;6.57;6.10;;;;;;;31.43;71.38;101232.34;5062354;28;66339;-44
2024/02/03 04:59:26;;;;;;;7.28;6.57;;;;;;;31.43;71.09;101221.50;5043083;28;69172;-43
2024/02/03 05:01:57;;;;;;;6.43;5.93;;;;;;;31.46;71.35;101215.63;5059094;28;66963;-44
2024/02/03 05:04:28;;;;;;;7.35;6.85;;;;;;;31.46;71.69;101215.63;5028192;28;69940;-46
2024/02/03 05:06:58;;;;;;;7.05;6.55;;;;;;;31.10;71.52;101143.84;5048639;28;66806;-45
2024/02/03 05:09:29;;;;;;;6.88;6.38;;;;;;;31.51;71.17;101213.13;5045293;28;69758;-44
2024/02/03 05:12:00;;;;;;;7.35;6.75;;;;;;;31.47;71.19;101190.19;5057402;28;65792;-45
2024/02/03 05:14:32;;;;;;;7.53;6.85;;;;;;;31.51;71.13;101190.56;5048055;28;69202;-44
2024/02/03 05:17:03;;;;;;;6.30;5.90;;;;;;;31.53;71.12;101183.88;5048464;28;65506;-44
2024/02/03 05:19:35;;;;;;;7.90;7.18;;;;;;;31.52;70.94;101179.53;5047157;28;70267;-44
2024/02/03 05:22:06;;;;;;;7.40;6.90;;;;;;;31.57;70.90;101185.13;5044639;28;65306;-44
2024/02/03 05:24:37;;;;;;;7.20;6.68;;;;;;;31.58;71.35;101170.50;5048426;28;70238;-44
2024/02/03 05:27:08;;;;;;;7.00;6.43;;;;;;;31.58;70.73;101173.22;5048941;28;66338;-43
2024/02/03 05:29:42;;;;;;;7.65;7.03;;;;;;;31.63;70.56;101167.16;5051199;28;70745;-45
2024/02/03 05:32:13;;;;;;;8.02;7.32;;;;;;;31.62;70.86;101154.63;5041945;28;66277;-45
2024/02/03 05:34:44;;;;;;;6.68;6.22;;;;;;;31.64;70.85;101151.72;5043438;28;70451;-43
2024/02/03 05:37:15;;;;;;;7.20;6.65;;;;;;;31.66;70.96;101138.75;5051043;28;65526;-45
2024/02/03 05:39:46;;;;;;;7.32;6.70;;;;;;;31.69;70.77;101138.31;5054692;28;68549;-43
2024/02/03 05:42:17;;;;;;;7.18;6.68;;;;;;;31.69;70.72;101128.31;5055464;28;66470;-44
2024/02/03 05:44:52;;;;;;;7.63;7.03;;;;;;;31.68;70.58;101115.81;5061702;28;70015;-45
2024/02/03 05:47:23;;;;;;;7.47;6.97;;;;;;;31.75;70.70;101116.56;5059299;28;66146;-44
2024/02/03 05:49:53;;;;;;;9.45;6.85;;;;;;;31.74;70.67;101103.25;5023149;28;70433;-44
2024/02/03 05:52:24;;;;;;;8.55;7.85;;;;;;;31.78;70.51;101105.28;5059428;28;66364;-45
2024/02/03 05:54:55;;;;;;;6.97;6.57;;;;;;;31.77;70.61;101091.94;5060031;28;70356;-44
2024/02/03 05:57:25;;;;;;;7.43;6.78;;;;;;;31.82;70.45;101089.41;5043824;28;66556;-43
2024/02/03 05:59:56;;;;;;;7.32;6.82;;;;;;;31.82;70.31;101075.84;5056672;28;70411;-44
2024/02/03 06:02:30;;;;;;;7.18;6.75;;;;;;;31.71;70.08;101050.25;5061767;28;66555;-46
2024/02/03 06:05:01;;;;;;;7.57;7.07;;;;;;;31.81;70.21;101066.03;5054886;28;70586;-45
2024/02/03 06:07:31;;;;;;;7.82;6.97;;;;;;;31.89;70.09;101063.03;5052675;28;66299;-46
2024/02/03 06:10:02;;;;;;;7.35;6.70;;;;;;;31.89;70.05;101063.03;5058261;28;69795;-44
2024/02/03 06:12:33;;;;;;;9.55;6.93;;;;;;;31.80;70.23;101042.69;5059381;28;65794;-45
2024/02/03 06:15:04;;;;;;;7.15;6.75;;;;;;;31.91;69.98;101054.69;5057950;28;69894;-46
2024/02/03 06:17:35;;;;;;;7.53;6.93;;;;;;;31.96;70.12;101052.16;5056618;28;65773;-44
2024/02/03 06:20:06;;;;;;;7.63;7.07;;;;;;;31.99;69.95;101046.28;5042953;28;70085;-45
2024/02/03 06:22:38;;;;;;;6.70;6.30;;;;;;;31.99;69.84;101041.69;5040000;28;66263;-44
2024/02/03 06:25:08;;;;;;;7.70;7.20;;;;;;;31.97;69.69;101032.94;5057146;28;71465;-45
2024/02/03 06:27:39;;;;;;;7.37;6.87;;;;;;;32.03;69.77;101032.03;5058295;28;67061;-45
2024/02/03 06:30:11;;;;;;;7.45;6.88;;;;;;;32.05;69.57;101029.94;5047610;28;70229;-45
2024/02/03 06:32:41;;;;;;;8.27;7.68;;;;;;;32.03;69.92;101020.34;5043248;28;66095;-45
2024/02/03 06:35:12;;;;;;;7.10;6.65;;;;;;;32.10;69.68;101017.59;5040215;28;69362;-45
2024/02/03 06:37:43;;;;;;;7.80;7.30;;;;;;;32.07;69.48;101005.28;5043498;28;66536;-45
2024/02/03 06:40:14;;;;;;;7.88;7.38;;;;;;;32.15;69.29;101006.84;5040044;28;70750;-44
2024/02/03 06:42:45;;;;;;;8.35;7.75;;;;;;;32.13;69.50;101000.84;5057769;28;66573;-44
2024/02/03 06:45:16;;;;;;;7.75;7.05;;;;;;;32.19;69.28;100999.94;5060376;28;70302;-44
2024/02/03 06:47:47;;;;;;;7.88;7.15;;;;;;;32.21;69.32;101005.97;5046504;28;65660;-45
2024/02/03 06:50:17;;;;;;;7.28;6.88;;;;;;;32.23;69.37;100996.56;5041581;28;70145;-44
2024/02/03 06:52:48;;;;;;;7.00;6.50;;;;;;;32.22;69.18;100985.91;5059780;28;65940;-45
2024/02/03 06:55:19;;;;;;;7.70;7.13;;;;;;;32.02;68.97;100938.13;5057888;28;71361;-45
2024/02/03 06:57:50;;;;;;;7.03;6.63;;;;;;;32.30;69.31;100977.47;5060127;28;65703;-44
2024/02/03 07:00:21;;;;;;;8.23;7.65;;;;;;;32.32;68.94;100972.63;5058316;28;69771;-45
2024/02/03 07:02:52;;;;;;;7.68;7.10;;;;;;;32.33;68.74;100971.56;5051257;28;66592;-45
2024/02/03 07:05:22;;;;;;;8.15;7.47;;;;;;;32.36;68.91;100965.69;5051379;28;70462;-44
2024/02/03 07:07:53;;;;;;;8.00;7.32;;;;;;;32.38;68.71;100960.88;5055076;28;66043;-47
2024/02/03 07:10:24;;;;;;;12.02;7.70;;;;;;;32.40;68.87;100961.47;5045410;28;69497;-44
2024/02/03 07:12:54;;;;;;;7.50;7.00;;;;;;;32.43;68.75;100960.16;5050684;28;65338;-44
2024/02/03 07:15:26;;;;;;;7.83;7.30;;;;;;;32.43;68.65;100955.56;5056734;28;70379;-44
2024/02/03 07:17:57;;;;;;;8.15;7.50;;;;;;;32.43;68.39;100944.72;5056076;28;66202;-45
2024/02/03 07:20:27;;;;;;;7.43;6.93;;;;;;;32.39;68.82;100932.66;5053372;28;70543;-45
2024/02/03 07:22:58;;;;;;;8.15;7.30;;;;;;;32.52;68.63;100945.25;5033651;28;65447;-44
2024/02/03 07:25:29;;;;;;;7.65;7.15;;;;;;;32.56;68.25;100942.91;5051090;28;70355;-44
2024/02/03 07:28:00;;;;;;;7.38;6.88;;;;;;;32.55;68.32;100938.53;5044428;28;66382;-45
2024/02/03 07:30:30;;;;;;;6.97;6.57;;;;;;;32.56;68.27;100932.03;5057988;28;70925;-45
2024/02/03 07:33:06;;;;;;;7.90;7.00;;;;;;;32.55;68.11;100924.97;5059170;28;66193;-45
2024/02/03 07:35:37;;;;;;;7.47;6.93;;;;;;;32.59;68.16;100909.84;5059956;28;69362;-45
2024/02/03 07:38:08;;;;;;;8.15;7.55;;;;;;;32.68;67.87;100919.31;5059386;28;65918;-45
2024/02/03 07:40:39;;;;;;;7.70;7.20;;;;;;;32.70;68.10;100914.47;5057784;28;70163;-44
2024/02/03 07:43:09;;;;;;;7.95;7.40;;;;;;;32.73;68.00;100911.31;5048594;28;66220;-45
2024/02/03 07:45:40;;;;;;;7.30;6.80;;;;;;;32.74;67.88;100917.59;5043123;28;70170;-44
2024/02/03 07:48:11;;;;;;;8.02;7.63;;;;;;;32.77;67.69;100917.94;5040836;28;66529;-45
2024/02/03 07:50:42;;;;;;;8.10;7.40;;;;;;;32.69;67.75;100904.69;5024866;28;70423;-45
2024/02/03 07:53:12;;;;;;;7.55;7.15;;;;;;;32.85;67.73;100923.03;5053719;28;66182;-45
2024/02/03 07:55:43;;;;;;;7.50;7.00;;;;;;;32.87;67.58;100920.91;5047434;28;70339;-44
2024/02/03 07:58:14;;;;;;;7.80;7.28;;;;;;;32.88;67.82;100908.16;5045479;28;66175;-44
2024/02/03 08:00:45;;;;;;;7.25;6.85;;;;;;;32.88;67.31;100906.28;5043342;28;70253;-47
2024/02/03 08:03:16;;;;;;;7.25;6.75;;;;;;;32.72;67.67;100877.06;5043676;28;65528;-45
2024/02/03 08:05:47;;;;;;;7.55;7.05;;;;;;;32.92;67.33;100904.72;5047435;28;70247;-44
2024/02/03 08:08:17;;;;;;;10.30;7.78;;;;;;;33.01;67.37;100915.28;5050472;28;66380;-42
2024/02/03 08:10:48;;;;;;;9.25;8.55;;;;;;;32.96;67.19;100902.41;5043458;28;69572;-44
2024/02/03 08:13:19;;;;;;;10.25;8.32;;;;;;;33.03;67.32;100910.47;5044097;28;66408;-44
2024/02/03 08:15:50;;;;;;;9.55;8.70;;;;;;;33.05;67.22;100898.28;5040897;28;70025;-44
2024/02/03 08:18:21;;;;;;;10.75;9.18;;;;;;;32.95;65.52;100911.59;5048008;28;65717;-45
2024/02/03 08:20:52;;;;;;;11.93;9.80;;;;;;;32.82;67.05;100909.94;5036902;28;69704;-43
2024/02/03 08:23:23;;;;;;;10.13;8.97;;;;;;;32.80;67.22;100912.03;5060128;28;65681;-44
2024/02/03 08:25:55;;;;;;;11.85;9.20;;;;;;;32.77;67.56;100912.50;5045884;28;70156;-43
2024/02/03 08:28:26;;;;;;;19.92;9.45;;;;;;;32.70;67.87;100914.47;5040893;28;67757;-47
2024/02/03 08:30:56;;;;;;;14.10;10.00;;;;;;;32.69;67.74;100913.66;5046596;28;69313;-46
2024/02/03 08:33:27;;;;;;;11.52;8.95;;;;;;;32.65;67.66;100908.91;5044298;28;66075;-47
2024/02/03 08:35:58;;;;;;;13.77;9.10;;;;;;;32.64;68.21;100912.69;5055597;28;70773;-47
2024/02/03 08:38:28;;;;;;;14.03;8.97;;;;;;;32.63;68.53;100919.22;5058302;28;67252;-45
2024/02/03 08:41:00;;;;;;;14.33;9.20;;;;;;;32.67;68.40;100920.38;5051354;28;70406;-45
2024/02/03 08:43:30;;;;;;;15.35;8.75;;;;;;;32.70;68.20;100917.19;5056679;28;65571;-45
2024/02/03 08:46:02;;;;;;;9.45;8.55;;;;;;;32.70;67.99;100922.63;5051896;28;69440;-44
2024/02/03 08:48:32;;;;;;;8.48;7.68;;;;;;;32.67;68.47;100923.09;5052469;28;66108;-46
2024/02/03 08:51:03;;;;;;;9.38;8.40;;;;;;;32.67;68.25;100913.06;5060446;28;70362;-48
2024/02/03 08:53:34;;;;;;;9.25;7.18;;;;;;;32.64;68.32;100907.28;5048555;28;66362;-44
2024/02/03 08:56:08;;;;;;;8.20;7.05;;;;;;;32.62;67.99;100906.66;5056327;28;69204;-44
2024/02/03 08:58:39;;;;;;;12.63;7.28;;;;;;;32.67;67.75;100910.34;5057873;28;65806;-44
2024/02/03 09:01:37;;;;;;;8.63;6.50;;;;;;;32.72;67.49;100931.38;5056810;28;69185;-44
2024/02/03 09:04:10;;;;;;;10.95;7.22;;;;;;;32.79;67.26;100937.56;5050264;28;66875;-45
2024/02/03 09:06:40;;;;;;;;;;;;;;;32.64;67.76;100939.84;5045504;28;70025;-43
2024/02/03 09:09:10;;;;;;;16.30;7.53;;;;;;;32.81;67.35;100954.44;5053202;28;66226;-44
2024/02/03 09:11:41;;;;;;;6.95;6.35;;;;;;;32.84;67.40;100943.09;5052664;28;70281;-45
2024/02/03 09:14:12;;;;;;;14.13;7.20;;;;;;;32.86;67.56;100938.28;5046619;28;65860;-45
2024/02/03 09:16:43;;;;;;;6.10;5.53;;;;;;;32.81;67.40;100935.41;5054062;28;69809;-46
2024/02/03 09:19:14;;;;;;;9.80;6.72;;;;;;;32.88;67.22;100947.03;5057012;28;66283;-44
2024/02/03 09:21:45;;;;;;;12.15;6.65;;;;;;;32.90;67.65;100950.34;5053413;28;70013;-44
2024/02/03 09:24:15;;;;;;;6.65;5.82;;;;;;;32.93;68.08;100951.75;5053217;28;66125;-43
2024/02/03 09:26:46;;;;;;;6.30;5.68;;;;;;;32.93;68.32;100949.88;5062002;28;70253;-44
2024/02/03 09:29:18;;;;;;;6.80;5.88;;;;;;;32.99;68.28;100959.00;5057704;28;65943;-43
2024/02/03 09:31:48;;;;;;;6.57;6.07;;;;;;;32.90;68.38;100942.19;5060850;28;69070;-44
2024/02/03 09:34:19;;;;;;;15.05;5.93;;;;;;;33.00;67.82;100970.72;5044314;28;65894;-43
2024/02/03 09:36:50;;;;;;;6.35;5.75;;;;;;;32.97;68.41;100965.72;5023400;28;69950;-44
2024/02/03 09:39:23;;;;;;;6.30;5.68;;;;;;;33.01;68.03;100966.91;5051581;28;65531;-45
2024/02/03 09:41:54;;;;;;;9.20;5.53;;;;;;;33.01;68.42;100977.78;5058009;28;70163;-44
2024/02/03 09:44:26;;;;;;;11.07;4.80;;;;;;;32.92;68.59;100959.06;5059498;28;65312;-43
2024/02/03 09:46:56;;;;;;;9.27;5.97;;;;;;;33.03;68.61;100975.69;5058687;28;70151;-44
2024/02/03 09:49:27;;;;;;;10.48;5.47;;;;;;;33.02;68.57;100977.56;5056586;28;66136;-44
2024/02/03 09:52:00;;;;;;;7.73;5.50;;;;;;;32.83;68.47;100946.88;5054466;28;70291;-45
2024/02/03 09:54:31;;;;;;;5.13;4.72;;;;;;;33.04;68.72;100989.03;5057087;28;66306;-45
2024/02/03 09:57:03;;;;;;;5.88;5.30;;;;;;;33.02;68.78;100995.78;5053512;28;70442;-46
2024/02/03 09:59:33;;;;;;;6.30;5.72;;;;;;;32.98;69.05;100989.09;5049547;28;65353;-46
2024/02/03 10:02:04;;;;;;;7.90;7.20;;;;;;;33.01;69.19;100994.09;5047693;28;69761;-45
2024/02/03 10:04:41;;;;;;;10.40;7.20;;;;;;;33.01;69.32;100999.53;5058220;28;65732;-45
2024/02/03 10:07:17;;;;;;;8.23;7.38;;;;;;;32.96;69.78;100996.66;5060619;28;69568;-46
2024/02/03 10:09:48;;;;;;;9.70;8.18;;;;;;;33.09;69.77;101008.19;5061790;28;66153;-44
2024/02/03 10:12:22;;;;;;;7.88;7.22;;;;;;;32.70;69.79;100944.38;5057826;28;70519;-45
2024/02/03 10:15:06;;;;;;;;;;;;;;;32.91;70.83;101013.66;5059089;28;66299;-44
2024/02/03 10:17:37;;;;;;;11.63;6.22;;;;;;;33.01;70.96;101007.69;5057925;28;70811;-45
2024/02/03 10:20:08;;;;;;;11.05;6.53;;;;;;;32.91;70.65;100995.47;5060626;28;66663;-45
2024/02/03 10:22:40;;;;;;;6.25;5.65;;;;;;;32.96;70.92;101004.78;5047644;28;69555;-44
2024/02/03 10:25:12;;;;;;;9.35;6.40;;;;;;;32.96;70.57;101005.66;5050304;28;65746;-44
2024/02/03 10:27:43;;;;;;;7.60;5.30;;;;;;;33.04;70.98;101023.53;5041043;28;70015;-44
2024/02/03 10:30:23;;;;;;;8.43;5.20;;;;;;;33.05;70.83;101027.91;5047502;28;66660;-48
2024/02/03 10:32:56;;;;;;;9.82;5.72;;;;;;;33.06;70.24;101040.44;5049063;28;69783;-46
2024/02/03 10:35:32;;;;;;;6.47;5.35;;;;;;;32.67;70.43;100972.00;5053813;28;66394;-46
2024/02/03 10:38:03;;;;;;;7.28;5.45;;;;;;;32.98;70.46;101021.69;5046558;28;69737;-45
2024/02/03 10:40:34;;;;;;;10.73;6.10;;;;;;;32.69;70.05;100978.03;5052642;28;66083;-49
2024/02/03 10:43:16;;;;;;;;;;;;;;;32.91;70.93;101038.13;5049056;28;70425;-43
2024/02/03 10:45:53;;;;;;;5.93;5.17;;;;;;;33.01;70.05;101045.72;5052783;28;67021;-46
2024/02/03 10:48:26;;;;;;;6.35;5.40;;;;;;;32.97;69.21;101047.22;5059683;28;70488;-43
2024/02/03 10:51:02;;;;;;;6.03;5.43;;;;;;;33.00;69.48;101042.19;5048084;28;67050;-45
2024/02/03 10:53:39;;;;;;;6.88;6.13;;;;;;;32.62;69.26;101001.72;5057123;28;68983;-43
2024/02/03 10:56:13;;;;;;;8.73;6.18;;;;;;;32.92;69.23;101056.88;5059578;28;66187;-46
2024/02/03 10:58:43;;;;;;;8.52;7.20;;;;;;;32.89;69.39;101051.91;5052287;28;68997;-44
2024/02/03 11:01:20;;;;;;;9.50;6.75;;;;;;;32.81;69.39;101043.25;5051798;28;66226;-43
2024/02/03 11:03:52;;;;;;;9.00;6.85;;;;;;;32.87;69.48;101059.47;5041028;28;71683;-43
2024/02/03 11:06:27;;;;;;;7.35;6.57;;;;;;;32.83;69.52;101057.47;5059972;28;66596;-43
2024/02/03 11:09:21;;;;;;;8.13;6.25;;;;;;;32.38;69.74;101001.59;5057912;28;69867;-44
2024/02/03 11:11:54;;;;;;;8.82;7.53;;;;;;;32.79;69.50;101061.66;5060349;28;65817;-45
2024/02/03 11:14:30;;;;;;;8.07;7.28;;;;;;;32.76;69.61;101067.56;5046003;28;69435;-43
2024/02/03 11:17:04;;;;;;;8.90;7.38;;;;;;;32.72;69.48;101075.34;5054321;28;66486;-44
2024/02/03 11:19:38;;;;;;;9.43;7.47;;;;;;;32.60;69.57;101058.19;5055176;28;43216;-44
2024/02/03 11:22:09;;;;;;;10.48;7.72;;;;;;;32.64;69.60;101075.66;5055994;28;66283;-43
2024/02/03 11:24:39;;;;;;;8.00;7.40;;;;;;;32.39;69.30;101035.81;5042973;28;69078;-43
2024/02/03 11:27:10;;;;;;;10.63;7.33;;;;;;;32.65;69.42;101085.44;5049485;28;67088;-44
2024/02/03 11:29:41;;;;;;;7.15;6.50;;;;;;;32.51;69.37;101065.78;5048302;28;70598;-44
2024/02/03 11:32:14;;;;;;;8.07;7.28;;;;;;;32.63;69.38;101095.75;5055133;28;66275;-44
2024/02/03 11:34:45;;;;;;;9.38;7.40;;;;;;;32.62;69.34;101104.94;5041544;28;70198;-43
2024/02/03 11:37:16;;;;;;;8.07;7.45;;;;;;;32.59;69.42;101094.50;5056322;28;66742;-43
2024/02/03 11:39:46;;;;;;;7.85;7.15;;;;;;;32.55;69.36;101093.31;5052100;28;69187;-44
2024/02/03 11:42:17;;;;;;;7.90;7.07;;;;;;;32.57;69.59;101107.50;5057346;28;68161;-43
2024/02/03 11:44:53;;;;;;;7.80;7.10;;;;;;;32.19;69.38;101056.94;5050129;28;69880;-44